Oneida Indian Reservation, Wisconsin
Current Conditions -  °F | °C
As of 7:53 PM on Thursday 18 Dec 2014 (Local Time) from KASX Reporting Station
Overcast Overcast  
Wind Chill: 16°   Ceiling: 2200
Heat Index: 22°   Visibility: 10mi
Dew Point: 18°   Wind: 5mph
Humidity: 85%   Direction: 230°SW
Pressure: 30.28"   Gusts: NA
Location:  46.543°N, 90.8706°W
Report Text: KASX 190153Z AUTO 23004KT 10SM OVC022 M06/M08 A3028 RMK AO2 SLP271 T10561078
Loading
Personal Weather Stations






























Interactive Weather Map New forecast layout! Learn more

10-Day Weather Forecast

Advertisements
Track Severe Weather on mobile